Nearby METAR Reports

 

KMTN - Baltimore/Martin, Maryland, USA
Distance from station: SSE 8mi, 13km
Updated: Sat, 23-Aug-2014 1:21am EDT
Clear
Clear
 Wind from E
Wind: E 7 mph , 11 km/h
Temperature: 72°F , 22°C
Dew Point: 66°F , 19°C
Humidity: 83%
Barometer: 30.03 inHg , 1016.9 hPa
Clouds: Clear
Visibility: 10 miles , 16 km
2014/08/23 05:21 KMTN 230521Z AUTO 08006KT 10SM CLR 22/19 A3003 RMK AO2
KDMH - Baltimore/Dwntwn, Maryland, USA
Distance from station: SW 12mi, 19km
Updated: Sat, 23-Aug-2014 12:54am EDT

 
Temperature: 73°F , 23°C
Dew Point: 64°F , 18°C
Humidity: 74%
Barometer: 30.02 inHg , 1016.6 hPa
2014/08/23 04:54 KDMH 230454Z AUTO 23/18 A3002 RMK AO1 SLP164 T02280183 402610222
 
KBWI - Balto/Wash Intl, Maryland, USA
Distance from station: SSW 20mi, 33km
Updated: Sat, 23-Aug-2014 1:26am EDT
Mostly cloudy
Mostly cloudy
 Wind from SSE
Wind: SSE 5 mph , 7 km/h
Temperature: 70°F , 21°C
Dew Point: 66°F , 19°C
Humidity: 88%
Barometer: 30.01 inHg , 1016.3 hPa
Clouds: Mostly cloudy
Visibility: 10 miles , 16 km
Cloud details: Mostly cloudy 1900 ft
Mostly cloudy 3900 ft
Mostly cloudy 12000 ft
2014/08/23 05:26 KBWI 230526Z 15004KT 10SM BKN019 BKN039 BKN120 21/19 A3001 RMK AO2
KDMW - Carroll Cnty, Maryland, USA
Distance from station: WNW 30mi, 48km
Updated: Sat, 23-Aug-2014 1:20am EDT
Mostly cloudy
Mostly cloudy
 Wind from SE
Wind: SE 5 mph , 7 km/h
Temperature: 70°F , 21°C
Dew Point: 66°F , 19°C
Humidity: 88%
Barometer: 30.02 inHg , 1016.6 hPa
Clouds: Mostly cloudy
Visibility: 10 miles , 16 km
Cloud details: Mostly cloudy 4700 ft
2014/08/23 05:20 KDMW 230520Z AUTO 14004KT 10SM BKN047 21/19 A3002 RMK AO2
 
KNAK - Annapolis/Naval, Maryland, USA
Distance from station: S 30mi, 48km
Updated: Sat, 23-Aug-2014 12:54am EDT

 Wind from E
Wind: E 9 mph , 15 km/h
Temperature: 73°F , 23°C
Dew Point: 66°F , 19°C
Humidity: 78%
Barometer: 30.01 inHg , 1016.3 hPa
Visibility: 10 miles , 16 km
2014/08/23 04:54 KNAK 230454Z AUTO 09008KT 10SM 23/19 A3001 RMK AO2 SLP163 T02280189 402610228 $
KW29 - Stevensville, Maryland, USA
Distance from station: SSE 31mi, 50km
Updated: Sat, 23-Aug-2014 1:21am EDT

 Wind from E
Wind: E 6 mph , 9 km/h
Temperature: 70°F , 21°C
Dew Point: 64°F , 18°C
Humidity: 83%
Barometer: 30.01 inHg , 1016.3 hPa
Visibility: 10 miles , 16 km
2014/08/23 05:21 KW29 230521Z AUTO 09005KT 10SM 21/18 A3001 RMK AO1
 
KCGS - College Park, Maryland, USA
Distance from station: SW 38mi, 61km
Updated: Sat, 23-Aug-2014 1:20am EDT
Overcast
Overcast
 Wind from calm
Wind: Calm
Temperature: 72°F , 22°C
Dew Point: 70°F , 21°C
Humidity: 94%
Barometer: 30.00 inHg , 1015.9 hPa
Clouds: Overcast
Visibility: 10 miles , 16 km
Cloud details: Partly cloudy 3700 ft
Mostly cloudy 5000 ft
Overcast 9500 ft
2014/08/23 05:20 KCGS 230520Z AUTO 00000KT 10SM SCT037 BKN050 OVC095 22/21 A3000 RMK AO1
KGAI - Gaithersburg, Maryland, USA
Distance from station: WSW 40mi, 65km
Updated: Sat, 23-Aug-2014 1:15am EDT
Mostly cloudy
Mostly cloudy
 Wind from E
Wind: E 5 mph , 7 km/h
Temperature: 70°F , 21°C
Dew Point: 66°F , 19°C
Humidity: 88%
Barometer: 30.04 inHg , 1017.3 hPa
Clouds: Mostly cloudy
Visibility: 10 miles , 16 km
Cloud details: Partly cloudy 1500 ft
Mostly cloudy 7000 ft
2014/08/23 05:15 KGAI 230515Z AUTO 10004KT 10SM SCT015 BKN070 21/19 A3004 RMK AO1
 
KTHV - York, Pennsylvania, USA
Distance from station: NNW 40mi, 65km
Updated: Sat, 23-Aug-2014 1:27am EDT
Overcast
Overcast
 Wind from varies
Wind: varies 3 mph , 6 km/h
Temperature: 70°F , 21°C
Dew Point: 66°F , 19°C
Humidity: 88%
Barometer: 30.02 inHg , 1016.6 hPa
Clouds: Overcast
Visibility: 10 miles , 16 km
Cloud details: Partly cloudy 1400 ft
Mostly cloudy 2000 ft
Overcast 3800 ft
2014/08/23 05:27 KTHV 230527Z AUTO VRB03KT 10SM SCT014 BKN020 OVC038 21/19 A3002 RMK AO2 T02060189
KFDK - Frederick, Maryland, USA
Distance from station: W 47mi, 75km
Updated: Sat, 23-Aug-2014 1:20am EDT
Rain, Overcast
Rain, Overcast
 Wind from NNE
Wind: NNE 3 mph , 6 km/h
Barometer: 30.03 inHg , 1016.9 hPa
Summary: Rain
Clouds: Overcast
Visibility: 5 miles , 8 km
Cloud details: Mostly cloudy 1400 ft
Overcast 3900 ft
2014/08/23 05:20 KFDK 230520Z AUTO 03003KT 5SM RA BKN014 OVC039 A3003 RMK AO2 LTG DSNT SE P0003
 
KESN - Easton/Newnam, Maryland, USA
Distance from station: SSE 48mi, 78km
Updated: Sat, 23-Aug-2014 1:33am EDT
Clear
Clear
 Wind from calm
Wind: Calm
Temperature: 70°F , 21°C
Dew Point: 70°F , 21°C
Humidity: 100%
Barometer: 30.04 inHg , 1017.3 hPa
Clouds: Clear
Visibility: 10 miles , 16 km
2014/08/23 05:33 KESN 230533Z AUTO 00000KT 10SM CLR 21/21 A3004 RMK AO2 T02050205
KDCA - Washington/Natl, Washington D.c., USA
Distance from station: SW 49mi, 79km
Updated: Sat, 23-Aug-2014 1:07am EDT
Overcast
Overcast
 Wind from ESE
Wind: ESE 9 mph , 15 km/h
Temperature: 75°F , 24°C
Dew Point: 68°F , 20°C
Humidity: 78%
Barometer: 30.00 inHg , 1015.9 hPa
Clouds: Overcast
Visibility: 10 miles , 16 km
Cloud details: Mostly cloudy 1500 ft
Overcast 5000 ft
2014/08/23 05:07 KDCA 230507Z 11008KT 10SM BKN015 OVC050 24/20 A3000 RMK AO2
 
KLNS - Lancaster, Pennsylvania, USA
Distance from station: N 49mi, 79km
Updated: Sat, 23-Aug-2014 12:53am EDT
Overcast
Overcast
 Wind from SE
Wind: SE 7 mph , 11 km/h
Temperature: 70°F , 21°C
Dew Point: 63°F , 17°C
Humidity: 78%
Barometer: 30.03 inHg , 1016.9 hPa
Clouds: Overcast
Visibility: 10 miles , 16 km
Cloud details: Overcast 3300 ft
2014/08/23 04:53 KLNS 230453Z 14006KT 10SM OVC033 21/17 A3003 RMK AO2 SLP166 T02060172 402500194
KILG - Wilmington, Delaware, USA
Distance from station: ENE 50mi, 81km
Updated: Sat, 23-Aug-2014 12:51am EDT
Few Clouds
Few Clouds
 Wind from ENE
Wind: ENE 7 mph , 11 km/h
Temperature: 70°F , 21°C
Dew Point: 63°F , 17°C
Humidity: 78%
Barometer: 30.03 inHg , 1016.9 hPa
Clouds: Few Clouds
Visibility: 10 miles , 16 km
Cloud details: Few Clouds 6000 ft
2014/08/23 04:51 KILG 230451Z AUTO 06006KT 10SM FEW060 21/17 A3003 RMK AO2 SLP169 T02060167 402720206